createdAt,value
2023-04-27T00:09:10.039Z,8.10
2023-04-27T00:19:09.635Z,7.80
2023-04-27T00:29:08.908Z,7.70
2023-04-27T00:39:08.754Z,7.60
2023-04-27T00:49:07.999Z,7.40
2023-04-27T00:59:07.046Z,7.20
2023-04-27T01:09:06.512Z,7.30
2023-04-27T01:19:06.039Z,7.40
2023-04-27T01:29:05.177Z,7.40
2023-04-27T01:39:05.992Z,7.40
2023-04-27T01:49:05.393Z,7.30
2023-04-27T01:59:04.369Z,7.30
2023-04-27T02:09:03.600Z,7.20
2023-04-27T02:19:03.860Z,7.10
2023-04-27T02:29:03.473Z,6.90
2023-04-27T02:39:03.640Z,6.90
2023-04-27T02:49:03.257Z,6.80
2023-04-27T02:59:02.169Z,6.70
2023-04-27T03:09:04.967Z,6.70
2023-04-27T03:19:04.595Z,6.60
2023-04-27T03:29:04.057Z,6.50
2023-04-27T03:39:03.390Z,6.50
2023-04-27T03:49:02.634Z,6.40
2023-04-27T03:59:03.887Z,6.40
2023-04-27T04:09:04.647Z,6.40
2023-04-27T04:19:04.922Z,6.40
2023-04-27T04:29:04.483Z,6.40
2023-04-27T04:39:06.290Z,6.40
2023-04-27T04:49:07.161Z,6.50
2023-04-27T04:59:06.627Z,6.60
2023-04-27T05:09:06.208Z,6.80
2023-04-27T05:19:05.599Z,7.10
2023-04-27T05:29:05.128Z,7.30
2023-04-27T05:39:04.199Z,7.40
2023-04-27T05:49:03.205Z,7.60
2023-04-27T05:59:02.755Z,8.10
2023-04-27T06:09:02.043Z,8.40
2023-04-27T06:19:01.270Z,8.50
2023-04-27T06:29:00.236Z,8.60
2023-04-27T06:38:59.370Z,8.70
2023-04-27T06:48:58.020Z,9.10
2023-04-27T06:58:57.243Z,9.30
2023-04-27T07:08:56.497Z,9.70
2023-04-27T07:18:55.452Z,10.30
2023-04-27T07:28:54.781Z,10.40
2023-04-27T07:38:54.200Z,10.90
2023-04-27T07:48:54.803Z,11.20
2023-04-27T07:58:53.973Z,11.50
2023-04-27T08:08:53.148Z,12.00
2023-04-27T08:18:52.074Z,12.10
2023-04-27T08:28:51.202Z,12.50
2023-04-27T08:38:50.258Z,13.10
2023-04-27T08:48:49.362Z,13.60
2023-04-27T08:58:48.550Z,14.10
2023-04-27T09:08:47.208Z,14.60
2023-04-27T09:18:46.373Z,15.00
2023-04-27T09:28:45.124Z,15.40
2023-04-27T09:38:44.360Z,15.60
2023-04-27T09:48:43.199Z,16.20
2023-04-27T09:58:42.266Z,16.60
2023-04-27T10:08:41.502Z,16.80
2023-04-27T10:18:40.132Z,17.10
2023-04-27T10:28:39.697Z,18.20
2023-04-27T10:38:39.140Z,18.50
2023-04-27T10:48:38.076Z,18.80
2023-04-27T10:58:48.125Z,19.00
2023-04-27T11:08:38.087Z,19.20
2023-04-27T11:18:37.194Z,19.30
2023-04-27T11:28:36.136Z,19.10
2023-04-27T11:38:35.677Z,18.90
2023-04-27T11:48:34.230Z,18.90
2023-04-27T11:58:33.329Z,18.60
2023-04-27T12:08:32.144Z,17.80
2023-04-27T12:18:31.411Z,17.60
2023-04-27T12:28:30.404Z,17.60
2023-04-27T12:38:29.213Z,18.10
2023-04-27T12:48:28.311Z,18.50
2023-04-27T12:58:27.246Z,18.50
2023-04-27T13:08:26.269Z,18.80
2023-04-27T13:18:25.725Z,19.60
2023-04-27T13:28:24.262Z,19.80
2023-04-27T13:38:23.303Z,20.00
2023-04-27T13:48:22.364Z,20.20
2023-04-27T13:58:21.996Z,20.80
2023-04-27T14:08:22.488Z,21.00
2023-04-27T14:18:25.432Z,21.90
2023-04-27T14:28:22.231Z,21.90
2023-04-27T14:38:21.237Z,22.20
2023-04-27T14:48:20.639Z,21.60
2023-04-27T14:58:19.277Z,21.30
2023-04-27T15:08:18.318Z,21.10
2023-04-27T15:18:17.311Z,21.30
2023-04-27T15:28:16.310Z,21.50
2023-04-27T15:38:15.728Z,21.20
2023-04-27T15:48:14.469Z,21.20
2023-04-27T15:58:13.650Z,21.00
2023-04-27T16:08:12.287Z,20.60
2023-04-27T16:18:11.483Z,20.30
2023-04-27T16:28:10.396Z,19.70
2023-04-27T16:38:09.326Z,19.40
2023-04-27T16:48:09.865Z,19.30
2023-04-27T16:58:08.323Z,18.60
2023-04-27T17:08:08.034Z,18.10
2023-04-27T17:18:09.293Z,17.70
2023-04-27T17:28:08.638Z,17.20
2023-04-27T17:38:08.133Z,17.00
2023-04-27T17:48:07.409Z,16.60
2023-04-27T17:58:06.500Z,16.10
2023-04-27T18:08:05.598Z,15.70
2023-04-27T18:18:04.465Z,15.30
2023-04-27T18:28:05.618Z,14.90
2023-04-27T18:38:04.428Z,14.60
2023-04-27T18:48:03.536Z,14.30
2023-04-27T18:58:02.657Z,14.20
2023-04-27T19:08:01.636Z,14.00
2023-04-27T19:18:06.840Z,13.90
2023-04-27T19:28:01.530Z,13.80
2023-04-27T19:38:00.465Z,13.80
2023-04-27T19:47:59.601Z,13.80
2023-04-27T19:57:58.442Z,13.70
2023-04-27T20:07:57.487Z,13.70
2023-04-27T20:17:56.728Z,13.60
2023-04-27T20:27:55.487Z,13.50
2023-04-27T20:37:54.466Z,13.50
2023-04-27T20:47:53.514Z,13.60
2023-04-27T20:57:52.560Z,13.50
2023-04-27T21:07:51.552Z,13.40
2023-04-27T21:17:50.747Z,13.50
2023-04-27T21:27:49.494Z,13.60
2023-04-27T21:37:49.087Z,13.60
2023-04-27T21:47:47.786Z,13.60
2023-04-27T21:57:46.711Z,13.60
2023-04-27T22:07:47.233Z,13.60
2023-04-27T22:17:46.797Z,13.70
2023-04-27T22:27:45.768Z,13.80
2023-04-27T22:37:44.735Z,13.90
2023-04-27T22:47:44.220Z,14.00
2023-04-27T22:57:43.644Z,14.00
2023-04-27T23:07:43.067Z,14.00
2023-04-27T23:17:41.852Z,14.00
2023-04-27T23:27:40.824Z,14.10
2023-04-27T23:37:39.681Z,14.10
2023-04-27T23:47:38.727Z,14.00
2023-04-27T23:57:37.728Z,14.00
